Horizon Enterprise — KRGB — position and weather

sailwx.info

Track history (hours):
 
Tides and Currents Weather Stations Pressure Air Temp Water Temp Dewpoint Dewpoint Depression Visibility Wind Speed Wind Dir Waves Ship Positions

Horizon Enterprise

Owner: Marine Transport Management, Inc, Jacksonville, FL. More information available from US FCC via Universal Licensing System and Coast Guard Vessel Documentation Center.

Last reported at 2017-Nov-18 19:49 UTC. Time now 2017-Nov-18 23:28 UTC.
Position N 32°58' W 120°28'.

Type: Cargo ship. MMSI: 366758000.

Date/timePositionNaut miles runAvg speedWind from/ knotsBaromVisibWave heightAir tempDewpointWater temp
2017-Nov-18 19:49N 32°58' W 120°28'619.3
2017-Nov-18 19:30N 32°59' W 120°21'1419.1
2017-Nov-18 18:48N 33°02' W 120°05'618.9
2017-Nov-18 18:27N 33°03' W 119°58'918.7
2017-Nov-18 18:00N 33°00' W 119°48'5164.3 350 / 201021.410.8 16.113.116.1
2017-Nov-18 17:58N 33°04' W 119°47'919.1
2017-Nov-18 17:30N 33°06' W 119°37'1119.2
2017-Nov-18 16:58N 33°08' W 119°24'919.3
2017-Nov-18 16:30N 33°09' W 119°14'1119.4
2017-Nov-18 15:57N 33°16' W 119°04'919.4
2017-Nov-18 15:30N 33°21' W 118°55'1019.4
2017-Nov-18 15:00N 33°27' W 118°46'1019.5
2017-Nov-18 14:30N 33°32' W 118°36'1019.5
2017-Nov-18 14:00N 33°36' W 118°25'816.2
2017-Nov-18 13:30N 33°39' W 118°16'7 0.3
2017-Nov-17 13:28N 33°46' W 118°17'0 0.0
2017-Nov-17 12:58N 33°46' W 118°17'0 0.0
2017-Nov-17 12:28N 33°46' W 118°17'0 0.0
2017-Nov-17 11:58N 33°46' W 118°17'0 0.0
2017-Nov-17 06:40N 33°46' W 118°17'5 0.7
2017-Nov-16 22:50N 33°41' W 118°14'411.3
2017-Nov-16 22:30N 33°38' W 118°16'714.4
2017-Nov-16 22:01N 33°38' W 118°25'1122.1
2017-Nov-16 21:31N 33°44' W 118°36'1122.0
2017-Nov-16 21:01N 33°49' W 118°48'1122.0
2017-Nov-16 20:31N 33°55' W 118°59'1122.1
2017-Nov-16 20:00N 33°60' W 119°11'1221.9
2017-Nov-16 19:28N 34°04' W 119°24'1021.7
2017-Nov-16 19:00N 34°07' W 119°36'1121.9
2017-Nov-16 18:29N 34°10' W 119°49'1121.8
2017-Nov-16 18:00N 34°13' W 120°02'1121.5
2017-Nov-16 17:29N 34°16' W 120°15'1021.3
2017-Nov-16 17:01N 34°18' W 120°26'1021.0
2017-Nov-16 16:31N 34°21' W 120°39'1121.4
2017-Nov-16 15:58N 34°24' W 120°52'919.9
2017-Nov-16 15:31N 34°29' W 121°02'1121.4
2017-Nov-16 15:00N 34°38' W 121°08'1121.5
2017-Nov-16 14:31N 34°47' W 121°15'1020.9
2017-Nov-16 14:01N 34°56' W 121°21'1020.5
2017-Nov-16 13:31N 35°05' W 121°27'1220.6
2017-Nov-16 12:56N 35°16' W 121°35'920.7
2017-Nov-16 12:31N 35°23' W 121°40'11120.9
2017-Nov-16 07:11N 37°03' W 122°40'520.2
2017-Nov-16 06:58N 37°07' W 122°42'920.0
2017-Nov-16 06:30N 37°17' W 122°44'1020.3
2017-Nov-16 06:01N 37°27' W 122°44'1020.4
2017-Nov-16 05:31N 37°37' W 122°44'918.1
2017-Nov-16 05:00N 37°46' W 122°41'713.3
2017-Nov-16 04:31N 37°48' W 122°33'713.6
2017-Nov-16 04:00N 37°50' W 122°25'510.8
2017-Nov-16 03:30N 37°48' W 122°19'1 1.2
2017-Nov-16 02:58N 37°48' W 122°19'0 0.0
2017-Nov-16 02:28N 37°48' W 122°19'0 0.0
2017-Nov-16 01:58N 37°48' W 122°19'0 0.0
2017-Nov-16 01:28N 37°48' W 122°19'0 0.0
2017-Nov-16 00:58N 37°48' W 122°19'0 0.0
2017-Nov-16 00:28N 37°48' W 122°19'0 0.0
2017-Nov-15 23:58N 37°48' W 122°19'0 0.0
2017-Nov-15 23:28N 37°48' W 122°19'0 0.0
2017-Nov-15 22:58N 37°48' W 122°19'0 0.0
2017-Nov-15 22:28N 37°48' W 122°19'0 0.0
2017-Nov-15 21:58N 37°48' W 122°19'0 0.0
2017-Nov-15 21:28N 37°48' W 122°19'0 0.0
2017-Nov-15 20:58N 37°48' W 122°19'0 0.0
2017-Nov-15 20:28N 37°48' W 122°19'0 0.0
2017-Nov-15 19:58N 37°48' W 122°19'0 0.0
2017-Nov-15 19:28N 37°48' W 122°19'0 0.0
2017-Nov-15 18:58N 37°48' W 122°19'0 0.0
2017-Nov-15 18:28N 37°48' W 122°19'0 0.0
2017-Nov-15 17:58N 37°48' W 122°19'0 0.0
2017-Nov-15 17:28N 37°48' W 122°19'0 0.0
2017-Nov-15 16:58N 37°48' W 122°19'0 0.0
2017-Nov-15 16:28N 37°48' W 122°19'0 0.0
2017-Nov-15 15:58N 37°48' W 122°19'0 0.0
2017-Nov-15 15:28N 37°48' W 122°19'0 0.0
2017-Nov-15 14:58N 37°48' W 122°19'0 0.0
2017-Nov-15 14:28N 37°48' W 122°19'0 0.0
2017-Nov-15 13:58N 37°48' W 122°19'0 0.0
2017-Nov-15 13:31N 37°48' W 122°19'1 1.7
2017-Nov-15 13:01N 37°48' W 122°17'2 4.7
2017-Nov-15 12:31N 37°48' W 122°20'511.0
2017-Nov-15 12:01N 37°49' W 122°27'816.0
2017-Nov-15 11:30N 37°46' W 122°37'612.3
2017-Nov-15 11:01N 37°43' W 122°43'713.9
2017-Nov-15 10:31N 37°39' W 122°50'816.5
2017-Nov-15 10:00N 37°34' W 122°59'816.1
2017-Nov-15 09:30N 37°31' W 123°08'816.2
2017-Nov-15 09:00N 37°28' W 123°18'5317.5
2017-Nov-15 06:00N 37°06' W 124°18'10314.7 180 / 51020.010.8 15.010.9
2017-Nov-14 23:00N 36°30' W 126°18'11222.5 180 / 131020.910.8 16.712.6
2017-Nov-14 18:00N 35°54' W 128°30'12517.8 150 / 141024.7 5.4 16.1 9.8
2017-Nov-14 11:00N 35°00' W 130°48'11623.3 140 / 81023.110.8 17.211.1
2017-Nov-14 06:00N 34°18' W 133°00'12217.5 150 / 71025.010.8 17.2 9.819.4
2017-Nov-13 23:00N 33°24' W 135°12'12625.2 070 / 131021.910.8 18.913.1
2017-Nov-13 18:00N 32°24' W 137°24'12420.7 110 / 141022.110.8 18.314.520.6
2017-Nov-13 12:00N 31°30' W 139°36'11218.6 120 / 121019.010.8 19.414.8
2017-Nov-13 06:00N 30°36' W 141°30'14424.0 110 / 81018.910.8 20.014.622.8
2017-Nov-13 00:00N 29°24' W 143°54'12120.2 120 / 151016.510.8 21.717.2
2017-Nov-12 18:00N 28°24' W 145°54'13322.1 180 / 91018.010.8 22.819.423.9
2017-Nov-12 12:00N 27°12' W 148°00'12120.2 140 / 111016.810.8 22.218.7
2017-Nov-12 06:00N 26°06' W 149°54'10217.0 130 / 181016.710.8 23.320.925.0
2017-Nov-12 00:00N 25°12' W 151°30'14211.8 110 / 121015.010.8 25.620.4
2017-Nov-11 12:00N 23°48' W 153°36'8213.6 110 / 191015.710.8 24.420.3
2017-Nov-11 06:00N 23°00' W 154°48'7913.1 110 / 241016.710.8 24.421.123.9
2017-Nov-11 00:00N 22°18' W 156°00'45 0.9 160 / 211013.610.8 26.720.8
2017-Nov-09 00:00N 21°42' W 156°30'   110 / 201014.127.0
Track history (hours):
 
Tides and Currents Weather Stations Pressure Air Temp Water Temp Dewpoint Dewpoint Depression Visibility Wind Speed Wind Dir Waves Ship Positions

Horizon Enterprise

Owner: Marine Transport Management, Inc, Jacksonville, FL. More information available from US FCC via Universal Licensing System and Coast Guard Vessel Documentation Center.

Last reported at 2017-Nov-18 19:49 UTC. Time now 2017-Nov-18 23:28 UTC.
Position N 32°58' W 120°28'.

Type: Cargo ship. MMSI: 366758000.

Date/timePositionNaut miles runAvg speedWind from/ knotsBaromVisibWave heightAir tempDewpointWater temp
2017-Nov-18 19:49N 32°58' W 120°28'619.3
2017-Nov-18 19:30N 32°59' W 120°21'1419.1
2017-Nov-18 18:48N 33°02' W 120°05'618.9
2017-Nov-18 18:27N 33°03' W 119°58'918.7
2017-Nov-18 18:00N 33°00' W 119°48'5164.3 350 / 201021.410.8 16.113.116.1
2017-Nov-18 17:58N 33°04' W 119°47'919.1
2017-Nov-18 17:30N 33°06' W 119°37'1119.2
2017-Nov-18 16:58N 33°08' W 119°24'919.3
2017-Nov-18 16:30N 33°09' W 119°14'1119.4
2017-Nov-18 15:57N 33°16' W 119°04'919.4
2017-Nov-18 15:30N 33°21' W 118°55'1019.4
2017-Nov-18 15:00N 33°27' W 118°46'1019.5
2017-Nov-18 14:30N 33°32' W 118°36'1019.5
2017-Nov-18 14:00N 33°36' W 118°25'816.2
2017-Nov-18 13:30N 33°39' W 118°16'7 0.3
2017-Nov-17 13:28N 33°46' W 118°17'0 0.0
2017-Nov-17 12:58N 33°46' W 118°17'0 0.0
2017-Nov-17 12:28N 33°46' W 118°17'0 0.0
2017-Nov-17 11:58N 33°46' W 118°17'0 0.0
2017-Nov-17 06:40N 33°46' W 118°17'5 0.7
2017-Nov-16 22:50N 33°41' W 118°14'411.3
2017-Nov-16 22:30N 33°38' W 118°16'714.4
2017-Nov-16 22:01N 33°38' W 118°25'1122.1
2017-Nov-16 21:31N 33°44' W 118°36'1122.0
2017-Nov-16 21:01N 33°49' W 118°48'1122.0
2017-Nov-16 20:31N 33°55' W 118°59'1122.1
2017-Nov-16 20:00N 33°60' W 119°11'1221.9
2017-Nov-16 19:28N 34°04' W 119°24'1021.7
2017-Nov-16 19:00N 34°07' W 119°36'1121.9
2017-Nov-16 18:29N 34°10' W 119°49'1121.8
2017-Nov-16 18:00N 34°13' W 120°02'1121.5
2017-Nov-16 17:29N 34°16' W 120°15'1021.3
2017-Nov-16 17:01N 34°18' W 120°26'1021.0
2017-Nov-16 16:31N 34°21' W 120°39'1121.4
2017-Nov-16 15:58N 34°24' W 120°52'919.9
2017-Nov-16 15:31N 34°29' W 121°02'1121.4
2017-Nov-16 15:00N 34°38' W 121°08'1121.5
2017-Nov-16 14:31N 34°47' W 121°15'1020.9
2017-Nov-16 14:01N 34°56' W 121°21'1020.5
2017-Nov-16 13:31N 35°05' W 121°27'1220.6
2017-Nov-16 12:56N 35°16' W 121°35'920.7
2017-Nov-16 12:31N 35°23' W 121°40'11120.9
2017-Nov-16 07:11N 37°03' W 122°40'520.2
2017-Nov-16 06:58N 37°07' W 122°42'920.0
2017-Nov-16 06:30N 37°17' W 122°44'1020.3
2017-Nov-16 06:01N 37°27' W 122°44'1020.4
2017-Nov-16 05:31N 37°37' W 122°44'918.1
2017-Nov-16 05:00N 37°46' W 122°41'713.3
2017-Nov-16 04:31N 37°48' W 122°33'713.6
2017-Nov-16 04:00N 37°50' W 122°25'510.8
2017-Nov-16 03:30N 37°48' W 122°19'1 1.2
2017-Nov-16 02:58N 37°48' W 122°19'0 0.0
2017-Nov-16 02:28N 37°48' W 122°19'0 0.0
2017-Nov-16 01:58N 37°48' W 122°19'0 0.0
2017-Nov-16 01:28N 37°48' W 122°19'0 0.0
2017-Nov-16 00:58N 37°48' W 122°19'0 0.0
2017-Nov-16 00:28N 37°48' W 122°19'0 0.0
2017-Nov-15 23:58N 37°48' W 122°19'0 0.0
2017-Nov-15 23:28N 37°48' W 122°19'0 0.0
2017-Nov-15 22:58N 37°48' W 122°19'0 0.0
2017-Nov-15 22:28N 37°48' W 122°19'0 0.0
2017-Nov-15 21:58N 37°48' W 122°19'0 0.0
2017-Nov-15 21:28N 37°48' W 122°19'0 0.0
2017-Nov-15 20:58N 37°48' W 122°19'0 0.0
2017-Nov-15 20:28N 37°48' W 122°19'0 0.0
2017-Nov-15 19:58N 37°48' W 122°19'0 0.0
2017-Nov-15 19:28N 37°48' W 122°19'0 0.0
2017-Nov-15 18:58N 37°48' W 122°19'0 0.0
2017-Nov-15 18:28N 37°48' W 122°19'0 0.0
2017-Nov-15 17:58N 37°48' W 122°19'0 0.0
2017-Nov-15 17:28N 37°48' W 122°19'0 0.0
2017-Nov-15 16:58N 37°48' W 122°19'0 0.0
2017-Nov-15 16:28N 37°48' W 122°19'0 0.0
2017-Nov-15 15:58N 37°48' W 122°19'0 0.0
2017-Nov-15 15:28N 37°48' W 122°19'0 0.0
2017-Nov-15 14:58N 37°48' W 122°19'0 0.0
2017-Nov-15 14:28N 37°48' W 122°19'0 0.0
2017-Nov-15 13:58N 37°48' W 122°19'0 0.0
2017-Nov-15 13:31N 37°48' W 122°19'1 1.7
2017-Nov-15 13:01N 37°48' W 122°17'2 4.7
2017-Nov-15 12:31N 37°48' W 122°20'511.0
2017-Nov-15 12:01N 37°49' W 122°27'816.0
2017-Nov-15 11:30N 37°46' W 122°37'612.3
2017-Nov-15 11:01N 37°43' W 122°43'713.9
2017-Nov-15 10:31N 37°39' W 122°50'816.5
2017-Nov-15 10:00N 37°34' W 122°59'816.1
2017-Nov-15 09:30N 37°31' W 123°08'816.2
2017-Nov-15 09:00N 37°28' W 123°18'5317.5
2017-Nov-15 06:00N 37°06' W 124°18'10314.7 180 / 51020.010.8 15.010.9
2017-Nov-14 23:00N 36°30' W 126°18'11222.5 180 / 131020.910.8 16.712.6
2017-Nov-14 18:00N 35°54' W 128°30'12517.8 150 / 141024.7 5.4 16.1 9.8
2017-Nov-14 11:00N 35°00' W 130°48'11623.3 140 / 81023.110.8 17.211.1
2017-Nov-14 06:00N 34°18' W 133°00'12217.5 150 / 71025.010.8 17.2 9.819.4
2017-Nov-13 23:00N 33°24' W 135°12'12625.2 070 / 131021.910.8 18.913.1
2017-Nov-13 18:00N 32°24' W 137°24'12420.7 110 / 141022.110.8 18.314.520.6
2017-Nov-13 12:00N 31°30' W 139°36'11218.6 120 / 121019.010.8 19.414.8
2017-Nov-13 06:00N 30°36' W 141°30'14424.0 110 / 81018.910.8 20.014.622.8
2017-Nov-13 00:00N 29°24' W 143°54'12120.2 120 / 151016.510.8 21.717.2
2017-Nov-12 18:00N 28°24' W 145°54'13322.1 180 / 91018.010.8 22.819.423.9
2017-Nov-12 12:00N 27°12' W 148°00'12120.2 140 / 111016.810.8 22.218.7
2017-Nov-12 06:00N 26°06' W 149°54'10217.0 130 / 181016.710.8 23.320.925.0
2017-Nov-12 00:00N 25°12' W 151°30'14211.8 110 / 121015.010.8 25.620.4
2017-Nov-11 12:00N 23°48' W 153°36'8213.6 110 / 191015.710.8 24.420.3
2017-Nov-11 06:00N 23°00' W 154°48'7913.1 110 / 241016.710.8 24.421.123.9
2017-Nov-11 00:00N 22°18' W 156°00'45 0.9 160 / 211013.610.8 26.720.8
2017-Nov-09 00:00N 21°42' W 156°30'   110 / 201014.127.0

Dump ship's entire track history